Mocoreta, Argentina
Current Conditions -  °F | °C
As of 6:00 PM on Wednesday 17 Dec 2014 (Local Time) from SBUG Reporting Station
Broken Clouds Broken Clouds  
Wind Chill: 81°   Ceiling: 9000
Heat Index: 83°   Visibility: 6mi
Dew Point: 66°   Wind: 7mph
Humidity: 61%   Direction: 200°SSW
Pressure: 29.83"   Gusts: NA
Location:  30.63°S, 57.97°W
Report Text: SBUG 172100Z 20006KT 9999 SCT037 FEW040TCU BKN090 27/19 Q1010
Loading
Personal Weather Stations






























Interactive Weather Map New forecast layout! Learn more

10-Day Weather Forecast

Advertisements
Track Severe Weather on mobile